LGRP Airport Information

Runway Information
Runway 07 Length 10846 ft width 148 ft
Elevation 16 ft Threshold 0 ft Heading 70
Runway 25 Length 10846 ft Width 148 ft
Elevation 17 ft Threshold 0 ft Heading 250
Airport Frequencies
Type A/G Name RDO Frequency 563.7 MHZ
Type APP Name RODOS APP Frequency 118.25 MHZ
Type ATIS Name ATIS Frequency 126.35 MHZ
Type GND Name GND Frequency 121.7 MHZ
Type TWR Name TWR Frequency 118.2 MHZ
Airport Navaids
Type VOR-DME Name Paradisi Frequency 108600 KHZ
Type VOR-DME Name Rodos Frequency 115800 KHZ
Type TACAN Name Rodos Frequency 117400 KHZ
Type NDB Name Rodos Frequency 339 KHZ
Airport Weather Information & NOTAM
ADDS - METARS form results

(0104 UTC 19 September 2021)
Data provider http://aviationweather.gov/metar/data/
 
METAR text: LGRP 190050Z 25008KT CAVOK 25/21 Q1012 NOSIG
Conditions at: LGRP (RHODES/DIAGORAS , GR) observed 0050 UTC 19 September 2021
Temperature: 25.0°C (77°F)
Dewpoint: 21.0°C (70°F) [RH = 79%]
Pressure (altimeter): 29.88 inches Hg (1012.0 mb)
Winds: from the WSW (250 degrees) at 9 MPH (8 knots; 4.1 m/s)
Visibility: 6 or more miles (10+ km)
Ceiling: ceiling and visibility are OK
Clouds: unknown
Weather: no significant weather observed at this time

METAR text: LGRP 190020Z 25006KT CAVOK 25/19 Q1012 NOSIG
Conditions at: LGRP (RHODES/DIAGORAS , GR) observed 0020 UTC 19 September 2021
Temperature: 25.0°C (77°F)
Dewpoint: 19.0°C (66°F) [RH = 69%]
Pressure (altimeter): 29.88 inches Hg (1012.0 mb)
Winds: from the WSW (250 degrees) at 7 MPH (6 knots; 3.1 m/s)
Visibility: 6 or more miles (10+ km)
Ceiling: ceiling and visibility are OK
Clouds: unknown
Weather: no significant weather observed at this time

Forecast for: LGRP (RHODES/DIAGORAS , GR)
Text: TAF LGRP 182300Z 1900/1924 26015KT 9999 FEW018
Forecast period: 0000 UTC 19 September 2021 to 0000 UTC 20 September 2021
Forecast type: FROM: standard forecast or significant change
Winds: from the W (260 degrees) at 17 MPH (15 knots; 7.7 m/s)
Visibility: 6 or more miles (10+ km)
Ceiling: at least 12,000 feet AGL
Clouds: few clouds at 1800 feet AGL
Weather: no significant weather forecast for this period
Text: TEMPO 1903/1909 VRB05KT
Forecast period: 0300 to 0900 UTC 19 September 2021
Forecast type: TEMPORARY: The following changes expected for less than half the time period
Winds: variable direction winds at 6 MPH (5 knots; 2.6 m/s)
Visibility: missing
Ceiling: unknown
Clouds: missing
Weather: no significant weather forecast for this period